Central, Texas
Current Conditions -  °F | °C
As of 5:15 PM on Tuesday 27 Jan 2015 (Local Time) from KOCH Reporting Station
Clear Clear  
Wind Chill: 73°   Ceiling: Unl
Heat Index: 73°   Visibility: 10mi
Dew Point: 45°   Wind: 3mph
Humidity: 36%   Direction: 110°ESE
Pressure: 30.11"   Gusts: NA
Location:  31.426°N, 94.8655°W
Report Text: KOCH 272315Z 11003KT 10SM CLR 23/07 A3011 RMK AO1
Loading
Personal Weather Stations






























Interactive Weather Map New forecast layout! Learn more

10-Day Weather Forecast

Advertisements
Track Severe Weather on mobile